Time;durP1;ratioP1;P1;durP2;ratioP2;P2;SDS_P1;SDS_P2;PMS_P1;PMS_P2;Temp;Humidity;BMP_temperature;BMP_pressure;BME280_temperature;BME280_humidity;BME280_pressure;Samples;Min_cycle;Max_cycle;Signal;HPM_P1;HPM_P2
2021/03/28 00:00:17;;;;;;;3.00;2.55;;;;;;;4.83;63.61;102149.31;684426;28;159690;-62
2021/03/28 00:00:51;;;;;;;3.20;2.70;;;;;;;4.85;63.55;102142.03;685533;28;155188;-62
2021/03/28 00:01:18;;;;;;;4.20;2.75;;;;;;;4.85;63.41;102137.53;685784;28;135118;-63
2021/03/28 00:01:47;;;;;;;2.88;2.50;;;;;;;4.85;63.50;102147.38;685741;28;138133;-62
2021/03/28 00:02:19;;;;;;;5.70;2.80;;;;;;;4.86;63.87;102149.13;686053;28;138033;-62
2021/03/28 00:02:50;;;;;;;3.00;2.70;;;;;;;4.83;63.76;102138.63;685983;28;139179;-63
2021/03/28 00:03:18;;;;;;;2.90;2.53;;;;;;;4.81;63.48;102145.88;685943;28;137176;-63
2021/03/28 00:03:40;;;;;;;2.75;2.30;;;;;;;4.80;63.74;102146.84;684427;28;161578;-62
2021/03/28 00:04:06;;;;;;;2.90;2.60;;;;;;;4.79;63.86;102145.13;688649;28;59546;-61
2021/03/28 00:04:29;;;;;;;3.17;2.63;;;;;;;4.77;63.75;102147.06;685673;28;138900;-63
2021/03/28 00:04:54;;;;;;;3.78;2.72;;;;;;;4.78;63.70;102146.06;688554;28;46333;-62
2021/03/28 00:05:18;;;;;;;3.17;2.88;;;;;;;4.78;63.81;102146.97;686460;28;106075;-62
2021/03/28 00:05:39;;;;;;;2.65;2.45;;;;;;;4.76;63.78;102148.84;685989;28;116243;-62
2021/03/28 00:06:22;;;;;;;3.03;2.50;;;;;;;4.75;63.88;102148.97;689882;28;22402;-63
2021/03/28 00:07:01;;;;;;;3.10;2.60;;;;;;;4.75;63.87;102143.59;680816;28;105364;-63
2021/03/28 00:07:37;;;;;;;3.58;2.63;;;;;;;4.77;63.65;102147.91;688513;28;61511;-63
2021/03/28 00:08:02;;;;;;;4.95;3.00;;;;;;;4.78;63.60;102151.44;686080;28;137791;-63
2021/03/28 00:08:26;;;;;;;4.10;2.88;;;;;;;4.76;63.52;102143.50;685986;28;116010;-62
2021/03/28 00:09:04;;;;;;;3.10;2.53;;;;;;;4.76;63.73;102148.00;688280;28;69445;-62
2021/03/28 00:09:27;;;;;;;3.47;3.13;;;;;;;4.79;63.76;102142.44;685068;28;159171;-63
2021/03/28 00:09:53;;;;;;;3.60;3.00;;;;;;;4.78;63.73;102154.09;687302;28;93299;-63
2021/03/28 00:10:27;;;;;;;4.00;2.78;;;;;;;4.73;63.88;102149.06;684778;28;138961;-63
2021/03/28 00:10:50;;;;;;;3.20;2.70;;;;;;;4.73;63.85;102146.38;685642;28;137321;-63
2021/03/28 00:11:15;;;;;;;3.17;2.70;;;;;;;4.72;63.88;102144.69;687969;28;67559;-63
2021/03/28 00:11:51;;;;;;;3.20;2.70;;;;;;;4.71;63.85;102148.31;686083;28;115481;-63
2021/03/28 00:12:22;;;;;;;3.10;2.80;;;;;;;4.73;63.68;102150.91;683586;28;135609;-63
2021/03/28 00:12:44;;;;;;;2.80;2.35;;;;;;;4.73;63.82;102153.56;679969;28;137679;-63
2021/03/28 00:13:08;;;;;;;3.63;2.50;;;;;;;4.75;63.81;102149.84;683708;28;44364;-62
2021/03/28 00:13:30;;;;;;;4.35;2.70;;;;;;;4.72;63.88;102149.16;683098;28;93101;-63
2021/03/28 00:13:53;;;;;;;3.00;2.70;;;;;;;4.69;63.87;102156.44;686658;28;37898;-63
2021/03/28 00:14:14;;;;;;;3.22;2.90;;;;;;;4.68;64.07;102153.88;685653;28;66263;-63
2021/03/28 00:14:39;;;;;;;3.72;2.90;;;;;;;4.65;63.91;102154.09;688318;28;23818;-63
2021/03/28 00:15:15;;;;;;;4.15;2.80;;;;;;;4.67;64.25;102157.50;684113;28;109157;-63
2021/03/28 00:15:46;;;;;;;3.20;2.70;;;;;;;4.67;64.10;102153.03;687610;28;60876;-63
2021/03/28 00:16:07;;;;;;;3.90;3.20;;;;;;;4.63;64.18;102150.66;687165;28;91306;-63
2021/03/28 00:16:31;;;;;;;3.70;2.70;;;;;;;4.66;64.09;102156.66;688820;28;44379;-63
2021/03/28 00:16:52;;;;;;;3.58;2.85;;;;;;;4.66;64.04;102159.34;689444;28;60633;-64
2021/03/28 00:17:32;;;;;;;3.17;2.80;;;;;;;4.65;64.03;102154.09;690969;28;45265;-62
2021/03/28 00:18:06;;;;;;;2.92;2.72;;;;;;;4.63;64.01;102156.88;683443;28;135205;-64
2021/03/28 00:18:29;;;;;;;2.83;2.60;;;;;;;4.69;64.17;102161.81;684297;28;126909;-65
2021/03/28 00:19:03;;;;;;;2.92;2.65;;;;;;;4.71;63.75;102155.50;686334;28;78689;-64
2021/03/28 00:19:29;;;;;;;2.80;2.60;;;;;;;4.69;64.02;102156.44;686864;28;138390;-63
2021/03/28 00:19:51;;;;;;;2.53;2.33;;;;;;;4.70;63.86;102154.63;688032;28;136230;-64
2021/03/28 00:20:34;;;;;;;2.80;2.60;;;;;;;4.68;63.93;102160.09;688740;28;24342;-64
2021/03/28 00:21:09;;;;;;;2.85;2.65;;;;;;;4.71;63.91;102152.84;684669;28;160620;-64
2021/03/28 00:21:33;;;;;;;5.00;2.85;;;;;;;4.72;63.78;102165.22;680586;28;156487;-61
2021/03/28 00:21:57;;;;;;;2.80;2.50;;;;;;;4.71;63.67;102159.03;682652;28;115979;-63
2021/03/28 00:22:21;;;;;;;2.90;2.70;;;;;;;4.72;63.85;102155.41;691600;28;16132;-63
2021/03/28 00:22:47;;;;;;;2.72;2.50;;;;;;;4.73;63.79;102151.75;688538;28;92337;-63
2021/03/28 00:23:14;;;;;;;3.00;2.80;;;;;;;4.70;63.93;102146.59;687057;28;133681;-62
2021/03/28 00:23:44;;;;;;;3.63;2.45;;;;;;;4.72;63.75;102155.41;687406;28;61707;-63
2021/03/28 00:24:17;;;;;;;2.70;2.33;;;;;;;4.73;63.87;102158.94;685168;28;131270;-63
2021/03/28 00:24:40;;;;;;;2.55;2.35;;;;;;;4.75;63.77;102163.22;681921;28;137719;-62
2021/03/28 00:25:10;;;;;;;3.03;2.70;;;;;;;4.77;63.66;102152.41;683953;28;65006;-62
2021/03/28 00:25:38;;;;;;;2.95;2.70;;;;;;;4.74;63.72;102156.16;685108;28;126334;-62
2021/03/28 00:26:16;;;;;;;2.75;2.50;;;;;;;4.75;63.60;102155.19;688350;28;60740;-62
2021/03/28 00:26:40;;;;;;;3.25;2.60;;;;;;;4.74;63.58;102153.47;685666;28;137504;-63
2021/03/28 00:27:11;;;;;;;2.47;2.28;;;;;;;4.72;63.66;102159.88;687373;28;86975;-63
2021/03/28 00:27:40;;;;;;;3.42;2.50;;;;;;;4.68;64.10;102159.25;688293;28;62450;-62
2021/03/28 00:28:21;;;;;;;2.63;2.42;;;;;;;4.69;64.02;102152.94;688602;28;61693;-63
2021/03/28 00:28:44;;;;;;;3.65;2.70;;;;;;;4.69;64.04;102167.16;685936;28;130469;-62
2021/03/28 00:29:09;;;;;;;4.15;2.60;;;;;;;4.69;63.91;102160.97;688304;28;69477;-62
2021/03/28 00:29:43;;;;;;;4.60;2.80;;;;;;;4.72;63.79;102170.59;688413;28;59194;-63
2021/03/28 00:30:07;;;;;;;3.22;2.58;;;;;;;4.72;63.72;102168.78;686517;28;118132;-62
2021/03/28 00:30:31;;;;;;;2.70;2.30;;;;;;;4.69;63.99;102167.16;686124;28;112351;-63
2021/03/28 00:31:07;;;;;;;3.05;2.60;;;;;;;4.69;63.93;102164.47;687321;28;90775;-63
2021/03/28 00:31:31;;;;;;;2.90;2.63;;;;;;;4.67;64.03;102158.38;685507;28;136025;-62
2021/03/28 00:31:57;;;;;;;2.97;2.55;;;;;;;4.67;64.14;102161.06;687061;28;92296;-63
2021/03/28 00:32:21;;;;;;;3.65;2.60;;;;;;;4.69;64.02;102155.59;685717;28;136472;-63
2021/03/28 00:32:46;;;;;;;4.93;2.60;;;;;;;4.65;64.06;102160.28;688410;28;60732;-63
2021/03/28 00:33:20;;;;;;;2.65;2.45;;;;;;;4.66;64.04;102162.00;684923;28;67988;-63
2021/03/28 00:33:44;;;;;;;2.95;2.50;;;;;;;4.65;64.10;102162.13;682491;28;137510;-63
2021/03/28 00:34:19;;;;;;;3.58;2.70;;;;;;;4.65;64.11;102160.28;684756;28;86589;-62
2021/03/28 00:34:42;;;;;;;3.03;2.63;;;;;;;4.65;64.12;102160.28;683995;28;137551;-62
2021/03/28 00:35:07;;;;;;;2.63;2.42;;;;;;;4.66;64.07;102163.84;688481;28;37910;-63
2021/03/28 00:35:31;;;;;;;2.60;2.40;;;;;;;4.64;64.21;102163.94;686967;28;100375;-63
2021/03/28 00:35:55;;;;;;;2.60;2.40;;;;;;;4.65;64.14;102165.63;686335;28;93065;-63
2021/03/28 00:36:17;;;;;;;3.40;2.50;;;;;;;4.65;63.90;102164.78;687082;28;93176;-62
2021/03/28 00:36:43;;;;;;;4.78;2.38;;;;;;;4.64;64.09;102161.28;688911;28;45259;-62
2021/03/28 00:37:16;;;;;;;3.90;2.50;;;;;;;4.64;64.10;102158.59;685770;28;136237;-62
2021/03/28 00:37:38;;;;;;;3.60;2.63;;;;;;;4.63;64.10;102161.38;685535;28;137648;-63
2021/03/28 00:38:08;;;;;;;3.05;2.75;;;;;;;4.59;64.32;102152.72;691038;28;46326;-63
2021/03/28 00:38:31;;;;;;;2.78;2.50;;;;;;;4.62;64.36;102159.66;688129;28;135930;-63
2021/03/28 00:38:55;;;;;;;3.53;2.60;;;;;;;4.63;64.27;102164.06;690576;28;69439;-62
2021/03/28 00:39:32;;;;;;;4.75;2.70;;;;;;;4.67;64.09;102155.72;689708;28;90328;-62
2021/03/28 00:39:55;;;;;;;3.42;2.60;;;;;;;4.68;63.99;102164.59;686885;28;137820;-63
2021/03/28 00:40:21;;;;;;;4.32;2.65;;;;;;;4.68;63.97;102162.75;687165;28;69425;-63
2021/03/28 00:40:42;;;;;;;3.03;2.55;;;;;;;4.68;64.02;102160.09;685871;28;137794;-63
2021/03/28 00:41:14;;;;;;;2.75;2.53;;;;;;;4.68;64.24;102162.75;689999;28;22395;-63
2021/03/28 00:41:53;;;;;;;3.67;2.63;;;;;;;4.70;63.73;102157.31;685763;28;137575;-63
2021/03/28 00:42:27;;;;;;;2.63;2.42;;;;;;;4.67;63.99;102162.84;685799;28;137447;-62
2021/03/28 00:42:51;;;;;;;3.50;2.90;;;;;;;4.68;63.75;102160.09;684650;28;137437;-63
2021/03/28 00:43:16;;;;;;;4.18;3.00;;;;;;;4.69;63.78;102161.81;688114;28;75793;-63
2021/03/28 00:43:43;;;;;;;3.88;2.65;;;;;;;4.69;63.77;102161.81;686424;28;115125;-63
2021/03/28 00:44:07;;;;;;;2.90;2.60;;;;;;;4.70;63.67;102154.63;688235;28;62532;-63
2021/03/28 00:44:30;;;;;;;3.67;2.65;;;;;;;4.69;63.64;102151.09;687262;28;92328;-63
2021/03/28 00:44:53;;;;;;;4.75;2.70;;;;;;;4.71;63.63;102164.38;688454;28;68989;-63
2021/03/28 00:45:21;;;;;;;2.95;2.50;;;;;;;4.71;63.79;102152.84;688686;28;65201;-63
2021/03/28 00:45:49;;;;;;;2.70;2.50;;;;;;;4.71;63.84;102150.16;682424;28;138402;-63
2021/03/28 00:46:36;;;;;;;4.05;2.67;;;;;;;4.69;63.69;102156.44;685063;28;58984;-63
2021/03/28 00:46:59;;;;;;;2.58;2.35;;;;;;;4.66;63.87;102161.16;682560;28;137669;-63
2021/03/28 00:47:23;;;;;;;3.50;2.70;;;;;;;4.68;63.84;102159.25;684874;28;69452;-63
2021/03/28 00:47:49;;;;;;;2.83;2.40;;;;;;;4.64;63.89;102155.91;683876;28;90806;-63
2021/03/28 00:48:12;;;;;;;3.78;2.78;;;;;;;4.61;63.97;102158.81;682603;28;138402;-63
2021/03/28 00:48:35;;;;;;;3.85;2.92;;;;;;;4.60;64.03;102157.06;685693;28;90386;-63
2021/03/28 00:49:00;;;;;;;3.53;2.60;;;;;;;4.61;64.17;102160.63;684108;28;137755;-63
2021/03/28 00:49:26;;;;;;;3.72;2.50;;;;;;;4.60;64.17;102158.91;683785;28;66889;-63
2021/03/28 00:49:58;;;;;;;2.75;2.55;;;;;;;4.59;64.34;102158.06;680681;28;138072;-63
2021/03/28 00:50:29;;;;;;;4.30;2.65;;;;;;;4.59;64.07;102150.03;677540;28;137557;-61
2021/03/28 00:50:54;;;;;;;3.03;2.72;;;;;;;4.59;64.25;102158.06;676268;28;133476;-62
2021/03/28 00:51:20;;;;;;;3.50;2.80;;;;;;;4.57;64.10;102151.09;677683;29;104210;-63
2021/03/28 00:51:46;;;;;;;2.92;2.55;;;;;;;4.57;64.17;102157.28;681172;28;114329;-63
2021/03/28 00:52:20;;;;;;;3.05;2.75;;;;;;;4.56;64.25;102158.25;683572;28;136150;-62
2021/03/28 00:52:50;;;;;;;5.50;2.57;;;;;;;4.58;64.15;102150.13;685965;28;137533;-61
2021/03/28 00:53:14;;;;;;;5.30;3.03;;;;;;;4.62;63.98;102165.84;688072;28;138834;-64
2021/03/28 00:53:51;;;;;;;3.58;2.58;;;;;;;4.60;64.17;102159.75;682270;28;137700;-64
2021/03/28 00:54:15;;;;;;;4.63;2.90;;;;;;;4.58;64.22;102160.84;685617;28;45303;-64
2021/03/28 00:54:44;;;;;;;3.92;2.90;;;;;;;4.60;64.08;102162.44;682061;28;92032;-64
2021/03/28 00:55:14;;;;;;;2.88;2.60;;;;;;;4.58;64.15;102158.16;677029;29;135201;-64
2021/03/28 00:55:55;;;;;;;4.13;2.70;;;;;;;4.57;64.08;102159.94;675749;29;132143;-63
2021/03/28 00:56:20;;;;;;;2.60;2.40;;;;;;;4.56;64.26;102165.41;677864;29;131432;-64
2021/03/28 00:56:45;;;;;;;3.00;2.70;;;;;;;4.56;64.11;102158.25;680273;28;138255;-63
2021/03/28 00:57:17;;;;;;;2.90;2.60;;;;;;;4.54;64.26;102157.47;682226;28;138378;-64
2021/03/28 00:57:39;;;;;;;3.00;2.40;;;;;;;4.57;64.16;102159.94;682834;28;138026;-63
2021/03/28 00:58:12;;;;;;;3.10;2.60;;;;;;;4.53;64.17;102158.47;681369;28;116014;-63
2021/03/28 00:58:54;;;;;;;6.85;2.70;;;;;;;4.56;64.21;102160.06;681132;28;136075;-62
2021/03/28 00:59:48;;;;;;;2.80;2.60;;;;;;;4.55;64.21;102161.03;683893;28;138355;-62
2021/03/28 01:00:46;;;;;;;3.30;3.00;;;;;;;4.57;64.18;102161.78;682047;28;137709;-63
2021/03/28 01:01:31;;;;;;;5.55;2.75;;;;;;;4.53;64.30;102171.84;682829;28;137584;-63
2021/03/28 01:02:26;;;;;;;4.25;2.80;;;;;;;4.51;64.39;102168.38;682767;28;138564;-63
2021/03/28 01:03:01;;;;;;;3.20;3.00;;;;;;;4.51;64.32;102169.28;676488;29;160405;-63
2021/03/28 01:03:33;;;;;;;2.78;2.58;;;;;;;4.51;64.53;102171.06;676854;29;138726;-63
2021/03/28 01:04:12;;;;;;;3.08;2.40;;;;;;;4.51;64.42;102163.91;677552;29;137316;-63
2021/03/28 01:04:42;;;;;;;2.78;2.58;;;;;;;4.51;64.29;102163.91;676818;29;137572;-62
2021/03/28 01:05:18;;;;;;;3.17;2.42;;;;;;;4.50;64.21;102164.88;676848;29;160852;-62
2021/03/28 01:05:43;;;;;;;3.60;2.78;;;;;;;4.51;64.32;102169.28;681698;28;136283;-62
2021/03/28 01:06:17;;;;;;;3.25;2.63;;;;;;;4.51;64.29;102166.59;686381;28;113591;-63
2021/03/28 01:06:43;;;;;;;2.78;2.55;;;;;;;4.49;64.36;102162.28;685602;28;136137;-61
2021/03/28 01:07:14;;;;;;;3.70;2.33;;;;;;;4.49;64.15;102168.50;686061;28;138225;-63
2021/03/28 01:07:42;;;;;;;2.80;2.60;;;;;;;4.51;64.22;102168.38;685588;28;136065;-64
2021/03/28 01:08:09;;;;;;;3.35;2.40;;;;;;;4.54;64.19;102164.66;685831;28;137939;-63
2021/03/28 01:08:37;;;;;;;2.83;2.60;;;;;;;4.52;64.20;102167.44;685597;28;138107;-64
2021/03/28 01:09:06;;;;;;;4.18;2.70;;;;;;;4.53;64.26;102160.25;685724;28;136403;-64
2021/03/28 01:09:36;;;;;;;3.05;2.70;;;;;;;4.51;64.37;102168.38;686054;28;129578;-62
2021/03/28 01:10:17;;;;;;;2.90;2.42;;;;;;;4.52;64.31;102164.78;685795;28;137352;-64
2021/03/28 01:11:17;;;;;;;3.10;2.70;;;;;;;4.51;64.43;102168.38;685552;28;157967;-64
2021/03/28 01:12:00;;;;;;;3.17;2.88;;;;;;;4.47;64.48;102159.72;674718;29;160630;-62
2021/03/28 01:13:06;;;;;;;3.40;2.70;;;;;;;4.54;64.37;102170.00;688276;28;137636;-63
2021/03/28 01:14:06;;;;;;;5.28;2.97;;;;;;;4.48;64.39;102168.59;687177;28;137558;-62
2021/03/28 01:14:43;;;;;;;2.60;2.40;;;;;;;4.46;64.44;102173.19;674689;29;136772;-63
2021/03/28 01:15:33;;;;;;;3.30;2.50;;;;;;;4.45;64.60;102166.13;676863;29;62353;-62
2021/03/28 01:16:21;;;;;;;3.53;2.60;;;;;;;4.45;64.42;102172.34;683679;28;154444;-61
2021/03/28 01:17:19;;;;;;;2.75;2.55;;;;;;;4.43;64.88;102176.06;685397;28;130835;-61
2021/03/28 01:17:44;;;;;;;2.60;2.40;;;;;;;4.44;64.65;102172.44;684800;28;135995;-61
2021/03/28 01:18:07;;;;;;;3.53;2.60;;;;;;;4.43;64.58;102176.06;687606;28;93004;-62
2021/03/28 01:18:31;;;;;;;3.47;2.47;;;;;;;4.41;64.82;102175.34;687850;28;69430;-62
2021/03/28 01:18:58;;;;;;;2.78;2.50;;;;;;;4.41;64.80;102180.69;687495;28;92289;-61
2021/03/28 01:19:53;;;;;;;3.05;2.70;;;;;;;4.43;64.75;102179.59;685424;28;137615;-64
2021/03/28 01:20:34;;;;;;;4.80;2.50;;;;;;;4.44;64.63;102172.44;684596;28;136788;-64
2021/03/28 01:20:59;;;;;;;3.33;2.40;;;;;;;4.41;64.49;102169.97;683991;28;157326;-62
2021/03/28 01:21:28;;;;;;;3.50;2.50;;;;;;;4.46;64.36;102174.03;685465;28;138200;-63
2021/03/28 01:21:56;;;;;;;3.15;2.60;;;;;;;4.45;64.92;102176.81;685550;28;136401;-63
2021/03/28 01:22:22;;;;;;;3.90;2.63;;;;;;;4.44;64.63;102183.16;685691;28;136309;-62
2021/03/28 01:22:49;;;;;;;3.80;2.67;;;;;;;4.42;64.62;102180.56;685539;28;138886;-62
2021/03/28 01:23:17;;;;;;;4.15;2.70;;;;;;;4.42;64.43;102174.34;685249;28;136288;-63
2021/03/28 01:23:41;;;;;;;2.90;2.50;;;;;;;4.43;64.50;102178.75;685493;28;124130;-61
2021/03/28 01:24:10;;;;;;;3.25;2.75;;;;;;;4.43;64.62;102178.75;687185;28;93679;-61
2021/03/28 01:24:36;;;;;;;3.67;3.20;;;;;;;4.41;64.61;102183.34;685855;28;138564;-63
2021/03/28 01:25:04;;;;;;;4.22;2.55;;;;;;;4.37;64.73;102176.47;685681;28;136583;-62
2021/03/28 01:26:12;;;;;;;3.20;2.65;;;;;;;4.36;64.85;102177.44;685511;28;140339;-62
2021/03/28 01:26:55;;;;;;;3.10;2.80;;;;;;;4.32;64.90;102176.78;685726;28;138671;-64
2021/03/28 01:27:22;;;;;;;3.20;2.67;;;;;;;4.33;64.90;102182.03;685833;28;137038;-63
2021/03/28 01:27:48;;;;;;;4.38;2.88;;;;;;;4.32;64.85;102179.47;684217;28;160126;-63
2021/03/28 01:28:21;;;;;;;3.17;2.85;;;;;;;4.36;64.94;102188.13;685581;28;138010;-63
2021/03/28 01:28:46;;;;;;;3.95;2.90;;;;;;;4.36;64.86;102180.97;688840;28;108338;-64
2021/03/28 01:29:18;;;;;;;3.50;2.50;;;;;;;4.33;64.87;102182.03;687457;28;115146;-63
2021/03/28 01:29:42;;;;;;;6.22;3.15;;;;;;;4.33;64.81;102187.38;686502;28;136112;-63
2021/03/28 01:30:07;;;;;;;2.55;2.35;;;;;;;4.31;65.26;102181.28;687645;28;115940;-63
2021/03/28 01:30:38;;;;;;;3.40;2.60;;;;;;;4.30;65.16;102176.03;684059;28;113596;-61
2021/03/28 01:31:03;;;;;;;3.33;2.60;;;;;;;4.31;65.10;102188.44;681908;28;137289;-61
2021/03/28 01:31:29;;;;;;;4.35;2.83;;;;;;;4.33;65.06;102184.72;682202;28;138776;-64
2021/03/28 01:31:52;;;;;;;3.33;2.90;;;;;;;4.33;65.00;102181.19;683389;28;113518;-64
2021/03/28 01:32:21;;;;;;;3.65;2.83;;;;;;;4.33;64.97;102182.03;684816;28;92285;-61
2021/03/28 01:32:45;;;;;;;4.07;2.70;;;;;;;4.30;65.28;102187.59;685468;28;138002;-63
2021/03/28 01:33:08;;;;;;;3.35;3.03;;;;;;;4.32;64.87;102185.66;687274;28;92386;-65
2021/03/28 01:33:41;;;;;;;3.67;2.72;;;;;;;4.31;65.07;102178.63;686944;28;89616;-63
2021/03/28 01:34:14;;;;;;;3.40;2.70;;;;;;;4.31;65.01;102185.75;684707;28;138136;-64
2021/03/28 01:34:45;;;;;;;4.18;2.60;;;;;;;4.30;65.08;102187.59;685433;28;138552;-61
2021/03/28 01:35:19;;;;;;;3.03;2.70;;;;;;;4.31;65.02;102189.31;685428;28;139013;-62
2021/03/28 01:35:50;;;;;;;3.63;2.83;;;;;;;4.32;64.53;102188.31;685236;28;137361;-61
2021/03/28 01:36:13;;;;;;;4.05;3.30;;;;;;;4.33;64.85;102190.06;686478;28;137797;-63
2021/03/28 01:36:45;;;;;;;5.07;3.13;;;;;;;4.29;65.00;102185.00;689221;28;30934;-63
2021/03/28 01:37:09;;;;;;;4.80;3.08;;;;;;;4.30;65.08;102192.09;685282;28;138072;-62
2021/03/28 01:37:34;;;;;;;5.47;2.80;;;;;;;4.29;65.12;102193.03;686487;28;115148;-64
2021/03/28 01:38:04;;;;;;;5.53;3.10;;;;;;;4.27;65.15;102187.78;686738;28;93113;-63
2021/03/28 01:38:30;;;;;;;4.88;3.40;;;;;;;4.26;65.29;102190.56;684734;28;160821;-65
2021/03/28 01:38:59;;;;;;;4.13;3.13;;;;;;;4.23;65.38;102188.97;685625;28;136450;-62
2021/03/28 01:39:23;;;;;;;6.00;3.00;;;;;;;4.22;65.40;102195.25;685075;28;159664;-63
2021/03/28 01:39:47;;;;;;;3.25;2.95;;;;;;;4.20;65.42;102183.81;686842;28;93386;-62
2021/03/28 01:40:16;;;;;;;3.90;3.10;;;;;;;4.21;65.53;102193.53;685453;28;115886;-64
2021/03/28 01:40:42;;;;;;;3.85;3.00;;;;;;;4.24;65.45;102192.47;685765;28;136337;-63
2021/03/28 01:41:07;;;;;;;4.43;3.30;;;;;;;4.26;65.15;102188.75;684827;28;136482;-59
2021/03/28 01:41:31;;;;;;;6.00;3.63;;;;;;;4.28;65.19;102191.34;687339;28;91457;-63
2021/03/28 01:41:57;;;;;;;5.63;3.40;;;;;;;4.28;65.22;102191.34;686998;28;92560;-62
2021/03/28 01:42:28;;;;;;;4.20;3.03;;;;;;;4.24;65.23;102177.28;685487;28;136767;-59
2021/03/28 01:42:57;;;;;;;3.30;2.93;;;;;;;4.26;65.15;102179.84;685258;28;161401;-64
2021/03/28 01:43:23;;;;;;;3.38;2.95;;;;;;;4.27;65.34;102190.47;685875;28;133466;-61
2021/03/28 01:43:48;;;;;;;3.60;2.92;;;;;;;4.27;65.34;102193.13;685869;28;115254;-60
2021/03/28 01:44:14;;;;;;;3.03;2.72;;;;;;;4.27;65.35;102193.13;686556;28;115069;-62
2021/03/28 01:44:43;;;;;;;5.20;2.90;;;;;;;4.29;65.41;102190.34;685375;28;138080;-62
2021/03/28 01:45:21;;;;;;;3.08;2.85;;;;;;;4.28;65.22;102191.34;686382;28;126142;-61
2021/03/28 01:45:46;;;;;;;3.40;3.10;;;;;;;4.25;65.66;102183.50;685084;28;137431;-62
2021/03/28 01:46:14;;;;;;;4.20;2.90;;;;;;;4.22;65.52;102187.22;686517;28;114747;-61
2021/03/28 01:46:47;;;;;;;4.30;3.17;;;;;;;4.21;65.58;102181.97;684925;28;138061;-61
2021/03/28 01:47:20;;;;;;;4.18;2.80;;;;;;;4.19;65.38;102187.44;684765;28;137224;-63
2021/03/28 01:47:52;;;;;;;4.10;2.83;;;;;;;4.20;65.68;102189.16;685378;28;138120;-62
2021/03/28 01:48:26;;;;;;;4.00;3.05;;;;;;;4.17;65.89;102197.38;685888;28;136532;-64
2021/03/28 01:48:53;;;;;;;3.20;2.90;;;;;;;4.18;65.70;102191.06;685620;28;138608;-63
2021/03/28 01:49:23;;;;;;;4.20;3.10;;;;;;;4.19;65.77;102195.47;685505;28;137732;-64
2021/03/28 01:49:56;;;;;;;3.47;2.80;;;;;;;4.22;65.61;102195.25;685705;28;136365;-64
2021/03/28 01:50:28;;;;;;;3.40;2.95;;;;;;;4.26;65.54;102193.22;685025;28;135957;-64
2021/03/28 01:50:56;;;;;;;3.60;2.90;;;;;;;4.22;65.42;102189.91;685465;28;136154;-63
2021/03/28 01:51:43;;;;;;;5.72;3.00;;;;;;;4.23;65.35;102190.75;684561;28;157658;-63
2021/03/28 01:52:10;;;;;;;5.43;3.20;;;;;;;4.22;65.54;102189.06;686394;28;110234;-64
2021/03/28 01:52:40;;;;;;;3.85;2.72;;;;;;;4.21;65.66;102187.34;687587;28;62372;-64
2021/03/28 01:53:14;;;;;;;3.10;2.90;;;;;;;4.20;65.65;102191.84;688078;28;61061;-64
2021/03/28 01:53:43;;;;;;;3.22;2.80;;;;;;;4.18;65.87;102188.38;684925;28;150020;-64
2021/03/28 01:54:09;;;;;;;4.45;2.70;;;;;;;4.18;65.85;102195.56;685870;28;129687;-64
2021/03/28 01:54:40;;;;;;;5.03;2.78;;;;;;;4.19;65.77;102183.91;685090;28;109952;-64
2021/03/28 01:55:08;;;;;;;5.75;3.20;;;;;;;4.18;65.70;102185.69;685322;28;137610;-63
2021/03/28 01:55:33;;;;;;;3.90;2.90;;;;;;;4.20;65.63;102190.94;685607;28;131673;-64
2021/03/28 01:55:58;;;;;;;3.20;2.90;;;;;;;4.20;65.57;102185.59;685939;28;104419;-63
2021/03/28 01:56:27;;;;;;;3.15;2.85;;;;;;;4.18;65.57;102188.38;687726;28;105579;-63
2021/03/28 01:56:53;;;;;;;4.63;2.88;;;;;;;4.20;65.67;102183.81;684667;28;137434;-61
2021/03/28 01:57:21;;;;;;;6.20;3.60;;;;;;;4.20;65.58;102182.94;683172;28;128928;-61
2021/03/28 01:57:53;;;;;;;4.05;3.13;;;;;;;4.21;65.49;102195.34;684808;28;137722;-64
2021/03/28 01:58:25;;;;;;;4.97;3.30;;;;;;;4.23;65.53;102194.31;685674;28;134791;-63
2021/03/28 01:59:02;;;;;;;3.75;3.00;;;;;;;4.20;65.68;102178.47;685266;28;130231;-63
2021/03/28 01:59:39;;;;;;;3.88;3.10;;;;;;;4.19;65.76;102184.75;690928;28;61152;-63
2021/03/28 02:00:28;;;;;;;3.78;2.90;;;;;;;4.19;65.51;102181.22;685289;28;137535;-63
2021/03/28 02:01:11;;;;;;;4.15;2.83;;;;;;;4.20;65.84;102189.16;684800;28;135884;-64
2021/03/28 02:01:43;;;;;;;3.78;2.97;;;;;;;4.17;65.42;102181.34;684850;28;156234;-64
2021/03/28 02:02:18;;;;;;;3.72;3.03;;;;;;;4.17;65.76;102186.69;687049;28;137585;-64
2021/03/28 02:02:45;;;;;;;4.78;3.40;;;;;;;4.14;65.64;102179.72;687991;28;138311;-64
2021/03/28 02:03:09;;;;;;;4.55;3.20;;;;;;;4.18;65.65;102184.84;687473;28;138999;-63
2021/03/28 02:03:37;;;;;;;3.30;3.00;;;;;;;4.17;65.62;102183.13;689247;28;91419;-63
2021/03/28 02:04:04;;;;;;;4.43;2.90;;;;;;;4.17;65.61;102189.34;687517;28;83899;-64
2021/03/28 02:04:39;;;;;;;4.95;3.13;;;;;;;4.20;65.56;102189.16;685011;28;137953;-64
2021/03/28 02:05:12;;;;;;;3.42;2.90;;;;;;;4.21;65.60;102188.19;685001;28;137289;-63
2021/03/28 02:05:55;;;;;;;2.97;2.65;;;;;;;4.23;65.46;102190.75;685259;28;137362;-64
2021/03/28 02:06:52;;;;;;;3.10;2.80;;;;;;;4.23;65.29;102188.97;685723;28;133263;-62
2021/03/28 02:07:27;;;;;;;3.35;2.90;;;;;;;4.23;65.29;102182.72;679521;28;159023;-62
2021/03/28 02:08:10;;;;;;;7.03;3.40;;;;;;;4.26;65.19;102191.44;685638;28;133689;-63
2021/03/28 02:08:44;;;;;;;3.28;2.97;;;;;;;4.26;65.21;102195.91;684147;28;160729;-62
2021/03/28 02:09:09;;;;;;;4.13;3.30;;;;;;;4.24;65.20;102193.34;685621;28;138456;-63
2021/03/28 02:09:40;;;;;;;5.32;3.35;;;;;;;4.26;65.22;102196.78;685282;28;116070;-62
2021/03/28 02:10:11;;;;;;;6.50;3.03;;;;;;;4.25;65.15;102191.53;687509;28;68281;-63
2021/03/28 02:10:45;;;;;;;4.50;3.05;;;;;;;4.22;65.31;102189.06;685109;28;122519;-62
2021/03/28 02:11:16;;;;;;;3.83;3.30;;;;;;;4.24;65.35;102189.81;685223;28;137771;-63
2021/03/28 02:11:47;;;;;;;4.38;3.13;;;;;;;4.23;65.24;102186.28;684201;28;157361;-63
2021/03/28 02:12:13;;;;;;;3.25;2.95;;;;;;;4.26;65.19;102188.75;682290;28;127587;-63
2021/03/28 02:12:40;;;;;;;4.55;3.20;;;;;;;4.25;65.22;102196.88;682569;28;139276;-63
2021/03/28 02:13:14;;;;;;;4.90;2.97;;;;;;;4.23;65.16;102190.75;681598;28;162343;-63
2021/03/28 02:13:39;;;;;;;3.92;2.88;;;;;;;4.24;65.34;102195.16;683062;28;124008;-62
2021/03/28 02:14:15;;;;;;;4.43;2.95;;;;;;;4.22;65.30;102192.59;684740;28;116865;-63
2021/03/28 02:15:11;;;;;;;2.95;2.75;;;;;;;4.20;65.24;102193.63;685672;28;138448;-62
2021/03/28 02:15:42;;;;;;;6.47;3.03;;;;;;;4.21;65.34;102188.19;687890;28;61201;-62
2021/03/28 02:16:15;;;;;;;4.18;2.92;;;;;;;4.23;65.22;102202.34;688024;28;62285;-63
2021/03/28 02:16:47;;;;;;;3.40;3.05;;;;;;;4.20;65.25;102189.16;685612;28;132842;-63
2021/03/28 02:17:18;;;;;;;2.78;2.58;;;;;;;4.22;65.14;102189.91;681962;28;137515;-63
2021/03/28 02:17:48;;;;;;;2.90;2.70;;;;;;;4.20;65.13;102189.16;681316;28;137534;-61
2021/03/28 02:18:34;;;;;;;4.00;2.90;;;;;;;4.21;64.95;102180.16;681683;28;137834;-63
2021/03/28 02:19:07;;;;;;;4.40;2.75;;;;;;;4.24;65.07;102182.63;675541;29;118878;-63
2021/03/28 02:19:30;;;;;;;4.22;2.90;;;;;;;4.23;65.13;102188.97;677151;29;137077;-62
2021/03/28 02:19:58;;;;;;;3.17;2.90;;;;;;;4.19;65.24;102175.88;680277;28;67078;-63
2021/03/28 02:20:43;;;;;;;3.13;2.80;;;;;;;4.18;65.03;102180.34;685070;28;137359;-62
2021/03/28 02:21:12;;;;;;;3.38;2.75;;;;;;;4.16;65.08;102179.59;680864;28;137933;-62
2021/03/28 02:21:45;;;;;;;3.38;2.78;;;;;;;4.15;65.22;102178.75;684732;28;137040;-63
2021/03/28 02:22:16;;;;;;;3.47;2.60;;;;;;;4.13;65.23;102190.50;685538;28;136014;-62
2021/03/28 02:22:42;;;;;;;2.97;2.70;;;;;;;4.10;65.25;102183.53;685008;28;136179;-63
2021/03/28 02:23:12;;;;;;;3.20;2.50;;;;;;;4.11;65.66;102185.25;685152;28;138233;-63
2021/03/28 02:23:41;;;;;;;3.45;2.92;;;;;;;4.12;65.36;102178.06;685089;28;123135;-62
2021/03/28 02:24:11;;;;;;;3.25;2.47;;;;;;;4.10;65.33;102183.53;685325;28;127988;-62
2021/03/28 02:24:43;;;;;;;4.30;2.80;;;;;;;4.07;65.44;102175.69;684332;28;155606;-62